aviador You're here:

CYNA Decoded Metar

NATASHQUAN in QC, CANADA
Report Time2018-05-20 23:00:00
UTC Time2018-05-20 23:17:21
Flight Rules vfr VFR
Wind270° at 10 Gusting to 15 kt
W.Decomp.*RWY 32: 8.7 kt HW 5 kt LCW
W.Rank270° ranks 1
Current wind is below 270° avg. (13.0)
Visibility9999 m
Phenomena:N/A
Clouds:Few 055 Hf
Expected CloudBase > 1,200 ft AGL from Temp-Dew spread
CeilingNone
Temp05°C (ISA -10)
Dew Point02°C (81% RH)
AAT-0.3°C
QNH1001 hPa
Density Alt-656 ft
Elevation36 ft
Report Wrong Elevation
Raw Report
CYNA 202300Z AUTO 27010G15KT 9SM FEW055 05/02 A2956 RMK SLP011=

Extra information for CYNA:More info

Metar Taf Metar & Taf Last 4 Metars F.Rules Stats Wind Profile Meteogram Temp Stats Airport Information Weather charts Add Link Nearby VenuesMetar ALERT Operation Metar Decoded Social comments